Time;durP1;ratioP1;P1;durP2;ratioP2;P2;SDS_P1;SDS_P2;PMS_P1;PMS_P2;Temp;Humidity;BMP_temperature;BMP_pressure;BME280_temperature;BME280_humidity;BME280_pressure;Samples;Min_cycle;Max_cycle;Signal;HPM_P1;HPM_P2
2023/08/18 00:00:09;;;;;;;11.75;5.65;;;;;;;24.22;59.44;100565.28;4234107;28;20250;-68
2023/08/18 00:02:35;;;;;;;14.73;5.68;;;;;;;24.18;59.77;100562.13;4236579;28;20246;-71
2023/08/18 00:05:02;;;;;;;12.35;6.05;;;;;;;24.16;59.61;100561.56;4240713;28;20582;-72
2023/08/18 00:07:29;;;;;;;19.00;6.50;;;;;;;24.11;60.14;100563.31;4229579;28;20582;-69
2023/08/18 00:09:56;;;;;;;17.23;6.10;;;;;;;23.91;60.22;100553.34;4231443;28;20237;-68
2023/08/18 00:12:23;;;;;;;16.52;6.65;;;;;;;23.89;60.20;100556.34;4230903;28;20301;-70
2023/08/18 00:14:51;;;;;;;15.15;6.43;;;;;;;23.72;60.67;100555.28;4228454;28;21180;-69
2023/08/18 00:17:18;;;;;;;9.48;6.70;;;;;;;23.66;60.68;100554.31;4223360;28;20238;-70
2023/08/18 00:19:44;;;;;;;12.32;6.10;;;;;;;23.66;60.71;100553.44;4230030;28;20242;-69
2023/08/18 00:22:11;;;;;;;15.07;6.40;;;;;;;23.59;61.02;100556.31;4230843;28;22109;-71
2023/08/18 00:24:38;;;;;;;12.20;6.97;;;;;;;23.57;60.98;100572.28;4229668;28;20227;-67
2023/08/18 00:27:04;;;;;;;13.23;6.85;;;;;;;23.62;60.65;100586.22;4218883;28;21872;-68
2023/08/18 00:29:31;;;;;;;20.33;6.23;;;;;;;23.68;60.59;100595.53;4230416;28;20240;-70
2023/08/18 00:31:59;;;;;;;16.65;6.70;;;;;;;23.72;60.40;100605.03;4232295;28;20321;-69
2023/08/18 00:34:25;;;;;;;16.83;6.27;;;;;;;23.70;60.33;100626.56;4226425;28;20599;-69
2023/08/18 00:36:52;;;;;;;15.37;5.77;;;;;;;23.79;60.03;100630.72;4223373;28;20235;-69
2023/08/18 00:39:18;;;;;;;13.23;6.43;;;;;;;23.95;58.99;100644.97;4227674;28;25763;-69
2023/08/18 00:41:45;;;;;;;14.00;5.50;;;;;;;24.41;57.31;100662.06;4227945;28;20243;-71
2023/08/18 00:44:11;;;;;;;11.87;5.73;;;;;;;24.49;57.24;100686.66;4223542;28;20223;-69
2023/08/18 00:46:38;;;;;;;8.68;6.10;;;;;;;24.51;59.09;100688.09;4230718;28;20235;-69
2023/08/18 00:49:07;;;;;;;21.13;6.87;;;;;;;24.10;61.65;100706.28;4229950;28;22678;-71
2023/08/18 00:51:37;;;;;;;13.27;7.00;;;;;;;24.07;63.48;100714.19;4238570;28;20254;-72
2023/08/18 00:54:04;;;;;;;21.03;7.33;;;;;;;23.41;69.59;100687.84;4226218;28;20326;-68
2023/08/18 00:56:31;;;;;;;17.45;7.90;;;;;;;23.21;72.65;100670.59;4222450;28;20242;-70
2023/08/18 00:58:57;;;;;;;24.57;9.27;;;;;;;22.47;79.27;100673.84;4223911;28;22360;-57
2023/08/18 01:01:24;;;;;;;23.97;9.00;;;;;;;21.96;82.50;100681.91;4218751;28;23837;-69
2023/08/18 01:03:51;;;;;;;24.87;9.70;;;;;;;21.96;83.34;100676.38;4233230;28;20306;-69
2023/08/18 01:06:17;;;;;;;26.17;10.60;;;;;;;21.59;86.38;100655.91;4214817;28;20332;-69
2023/08/18 01:08:44;;;;;;;20.87;9.97;;;;;;;21.06;89.37;100641.13;4221551;28;21106;-69
2023/08/18 01:11:27;;;;;;;25.17;10.00;;;;;;;20.96;90.13;100613.19;4241437;28;22660;-70
2023/08/18 01:14:02;;;;;;;19.33;10.30;;;;;;;20.65;91.11;100606.38;4223983;28;20236;-70
2023/08/18 01:16:29;;;;;;;20.70;10.03;;;;;;;20.58;92.58;100601.69;4229853;28;20246;-70
2023/08/18 01:18:58;;;;;;;15.77;9.90;;;;;;;20.49;92.80;100591.97;4241626;28;20323;-70
2023/08/18 01:21:25;;;;;;;15.83;9.43;;;;;;;20.37;93.99;100610.13;4230309;28;21568;-71
2023/08/18 01:23:51;;;;;;;17.67;9.90;;;;;;;20.27;94.50;100621.50;4224068;28;21736;-69
2023/08/18 01:26:18;;;;;;;18.60;11.05;;;;;;;20.23;96.07;100639.50;4226877;28;23390;-70
2023/08/18 01:28:45;;;;;;;23.10;11.50;;;;;;;20.18;97.08;100653.84;4249622;28;20653;-70
2023/08/18 01:31:20;;;;;;;21.17;11.50;;;;;;;20.31;96.94;100674.19;4241452;28;23036;-69
2023/08/18 01:33:52;;;;;;;22.30;11.60;;;;;;;20.30;98.22;100680.72;4226694;28;20222;-69
2023/08/18 01:36:21;;;;;;;21.03;11.17;;;;;;;20.25;98.70;100671.22;4220277;28;20288;-70
2023/08/18 01:38:51;;;;;;;20.37;11.00;;;;;;;20.22;98.44;100692.75;4225469;28;20238;-70
2023/08/18 01:41:20;;;;;;;20.43;12.20;;;;;;;20.25;99.27;100730.81;4201939;28;20278;-70
2023/08/18 01:43:47;;;;;;;19.23;10.43;;;;;;;20.13;97.69;100724.22;4226151;28;22922;-70
2023/08/18 01:46:13;;;;;;;15.87;9.73;;;;;;;19.93;97.22;100731.31;4240751;28;20535;-69
2023/08/18 01:48:40;;;;;;;20.73;10.23;;;;;;;19.83;98.33;100732.69;4212525;28;22319;-70
2023/08/18 01:51:07;;;;;;;18.00;10.43;;;;;;;19.76;99.32;100730.75;4228796;28;23005;-70
2023/08/18 01:53:35;;;;;;;23.93;11.13;;;;;;;19.77;100.00;100728.84;4232346;28;20462;-75
2023/08/18 01:56:05;;;;;;;16.53;10.50;;;;;;;19.82;99.84;100707.13;4225321;28;25813;-70
2023/08/18 01:58:32;;;;;;;20.17;11.73;;;;;;;19.78;100.00;100690.19;4218880;28;20564;-69
2023/08/18 02:00:58;;;;;;;23.13;11.60;;;;;;;19.69;100.00;100683.16;4232735;28;20303;-69
2023/08/18 02:03:25;;;;;;;19.60;11.03;;;;;;;19.68;100.00;100667.72;4225094;28;20266;-70
2023/08/18 02:05:53;;;;;;;20.00;12.60;;;;;;;19.75;100.00;100676.03;4211900;28;20493;-70
2023/08/18 02:08:20;;;;;;;19.57;12.67;;;;;;;19.80;100.00;100679.00;4212871;28;21896;-70
2023/08/18 02:10:47;;;;;;;19.60;12.37;;;;;;;19.77;100.00;100687.63;4203878;28;21940;-71
2023/08/18 02:13:14;;;;;;;22.60;13.57;;;;;;;19.70;100.00;100687.59;4223947;28;23143;-69
2023/08/18 02:15:40;;;;;;;22.27;13.53;;;;;;;19.61;100.00;100684.16;4218707;28;20235;-70
2023/08/18 02:18:07;;;;;;;21.70;14.03;;;;;;;19.58;100.00;100673.59;4238822;28;20242;-70
2023/08/18 02:20:36;;;;;;;22.93;14.57;;;;;;;19.52;100.00;100660.66;4225638;28;20245;-70
2023/08/18 02:23:03;;;;;;;21.57;13.47;;;;;;;19.50;100.00;100649.03;4213014;28;21665;-69
2023/08/18 02:25:30;;;;;;;21.97;14.37;;;;;;;19.51;100.00;100653.47;4224306;28;20306;-70
2023/08/18 02:27:56;;;;;;;17.03;12.83;;;;;;;19.44;100.00;100661.66;4234951;28;22233;-69
2023/08/18 02:30:23;;;;;;;21.03;13.23;;;;;;;19.41;100.00;100655.72;4217916;28;20232;-70
2023/08/18 02:32:50;;;;;;;19.23;12.20;;;;;;;19.30;100.00;100665.34;4225289;28;21112;-68
2023/08/18 02:35:17;;;;;;;19.57;12.77;;;;;;;19.28;100.00;100671.06;4221827;28;20295;-70
2023/08/18 02:37:43;;;;;;;19.40;12.50;;;;;;;19.26;100.00;100695.09;4221645;28;20232;-70
2023/08/18 02:40:10;;;;;;;24.47;13.60;;;;;;;19.25;100.00;100689.81;4215206;28;20266;-71
2023/08/18 02:42:36;;;;;;;19.47;12.10;;;;;;;19.27;100.00;100660.25;4225009;28;22307;-69
2023/08/18 02:45:03;;;;;;;22.97;11.60;;;;;;;19.27;100.00;100639.16;4219792;28;20224;-71
2023/08/18 02:47:30;;;;;;;15.90;10.53;;;;;;;19.23;100.00;100661.72;4235157;28;21085;-68
2023/08/18 02:49:57;;;;;;;15.37;11.07;;;;;;;19.25;100.00;100692.56;4194441;28;20223;-68
2023/08/18 02:52:24;;;;;;;22.47;11.67;;;;;;;19.30;100.00;100703.78;4222316;28;22382;-69
2023/08/18 02:54:50;;;;;;;20.63;12.43;;;;;;;19.23;100.00;100695.47;4216371;28;21238;-68
2023/08/18 02:57:17;;;;;;;14.17;10.57;;;;;;;19.20;100.00;100684.91;4215590;28;20236;-70
2023/08/18 02:59:43;;;;;;;16.27;11.27;;;;;;;19.30;100.00;100688.16;4225137;28;21174;-70
2023/08/18 03:02:10;;;;;;;20.23;11.50;;;;;;;19.24;100.00;100685.38;4228209;28;21577;-71
2023/08/18 03:04:37;;;;;;;19.40;11.93;;;;;;;19.16;100.00;100676.25;4222509;28;25419;-71
2023/08/18 03:07:04;;;;;;;17.07;11.33;;;;;;;19.10;100.00;100659.72;4211291;28;20280;-72
2023/08/18 03:09:31;;;;;;;18.40;11.67;;;;;;;19.04;100.00;100642.13;4221597;28;20984;-71
2023/08/18 03:11:57;;;;;;;16.60;10.47;;;;;;;18.99;100.00;100633.66;4222751;28;20240;-72
2023/08/18 03:14:24;;;;;;;15.00;10.97;;;;;;;18.99;100.00;100619.94;4213659;28;20236;-68
2023/08/18 03:16:50;;;;;;;14.93;10.70;;;;;;;19.05;100.00;100610.06;4219406;28;20229;-70
2023/08/18 03:19:18;;;;;;;17.80;10.93;;;;;;;19.05;100.00;100599.94;4221704;28;20243;-71
2023/08/18 03:21:44;;;;;;;17.13;11.17;;;;;;;19.00;100.00;100606.00;4216414;28;20277;-69
2023/08/18 03:24:13;;;;;;;16.57;10.43;;;;;;;19.03;100.00;100592.97;4222243;28;20259;-69
2023/08/18 03:26:39;;;;;;;20.23;11.03;;;;;;;19.01;100.00;100595.91;4222739;28;20333;-69
2023/08/18 03:29:06;;;;;;;19.00;11.40;;;;;;;18.92;100.00;100584.22;4224786;28;20436;-70
2023/08/18 03:31:32;;;;;;;16.10;10.60;;;;;;;18.86;100.00;100576.75;4218315;28;21211;-69
2023/08/18 03:33:59;;;;;;;16.33;9.63;;;;;;;18.87;100.00;100569.41;4229931;28;21656;-73
2023/08/18 03:36:26;;;;;;;12.53;9.50;;;;;;;19.04;100.00;100561.72;4223084;28;20231;-70
2023/08/18 03:38:53;;;;;;;15.37;9.60;;;;;;;19.14;100.00;100579.53;4203267;28;20285;-71
2023/08/18 03:41:19;;;;;;;15.63;9.13;;;;;;;19.06;100.00;100565.97;4241979;28;20653;-71
2023/08/18 03:43:46;;;;;;;8.27;6.83;;;;;;;18.98;100.00;100556.00;4236059;28;20344;-69
2023/08/18 03:46:20;;;;;;;11.63;7.50;;;;;;;18.93;99.81;100563.97;4227528;28;21899;-72
2023/08/18 03:48:47;;;;;;;9.90;6.93;;;;;;;19.03;100.00;100563.66;4253135;28;20247;-71
2023/08/18 03:51:14;;;;;;;12.53;7.07;;;;;;;19.07;99.83;100577.81;4259548;28;21598;-68
2023/08/18 03:53:41;;;;;;;10.47;6.57;;;;;;;18.99;99.68;100574.16;4282820;28;21101;-70
2023/08/18 03:56:08;;;;;;;14.57;7.33;;;;;;;18.95;100.00;100570.13;4291080;28;21131;-70
2023/08/18 03:58:36;;;;;;;8.83;6.83;;;;;;;19.03;100.00;100580.09;4317414;28;20287;-72
2023/08/18 04:01:07;;;;;;;11.47;6.80;;;;;;;19.14;100.00;100571.31;4279725;28;20235;-70
2023/08/18 04:03:42;;;;;;;11.63;7.97;;;;;;;19.18;100.00;100573.66;4288637;28;20232;-71
2023/08/18 04:06:12;;;;;;;16.60;8.20;;;;;;;18.99;100.00;100570.56;4278016;28;20221;-71
2023/08/18 04:08:42;;;;;;;11.40;8.07;;;;;;;18.99;100.00;100571.44;4268156;28;21930;-73
2023/08/18 04:11:10;;;;;;;13.50;7.97;;;;;;;19.05;100.00;100566.19;4289659;28;20566;-69
2023/08/18 04:13:37;;;;;;;12.87;8.07;;;;;;;19.11;100.00;100570.84;4259101;28;20309;-72
2023/08/18 04:16:04;;;;;;;10.27;7.50;;;;;;;19.23;100.00;100562.91;4257323;28;22008;-74
2023/08/18 04:18:31;;;;;;;10.87;7.67;;;;;;;19.30;100.00;100559.16;4264581;28;20233;-70
2023/08/18 04:20:57;;;;;;;12.00;7.80;;;;;;;19.38;100.00;100554.53;4266825;28;20947;-70
2023/08/18 04:23:24;;;;;;;14.87;8.70;;;;;;;19.39;99.90;100548.00;4240472;28;20234;-70
2023/08/18 04:25:51;;;;;;;16.37;9.00;;;;;;;19.37;100.00;100552.88;4226342;28;20234;-70
2023/08/18 04:28:18;;;;;;;13.43;9.03;;;;;;;19.58;100.00;100551.91;4236642;28;20721;-72
2023/08/18 04:30:46;;;;;;;16.37;9.87;;;;;;;19.58;100.00;100543.66;4281327;28;20235;-69
2023/08/18 04:33:12;;;;;;;18.90;9.30;;;;;;;19.50;100.00;100547.44;4216758;28;21897;-71
2023/08/18 04:35:39;;;;;;;14.40;9.40;;;;;;;19.58;100.00;100539.03;4231153;28;20242;-72
2023/08/18 04:38:07;;;;;;;11.33;8.67;;;;;;;19.68;99.76;100544.13;4233206;28;20224;-70
2023/08/18 04:40:34;;;;;;;14.07;9.00;;;;;;;19.81;98.81;100532.38;4216176;28;20248;-70
2023/08/18 04:43:02;;;;;;;12.43;8.57;;;;;;;19.80;98.36;100538.91;4219002;28;20367;-70
2023/08/18 04:45:28;;;;;;;17.53;8.47;;;;;;;19.78;98.76;100525.38;4239605;28;20281;-70
2023/08/18 04:47:55;;;;;;;16.33;9.07;;;;;;;19.92;98.30;100528.19;4231146;28;20322;-68
2023/08/18 04:50:25;;;;;;;15.33;8.77;;;;;;;19.94;99.44;100513.19;4234409;28;20235;-69
2023/08/18 04:52:52;;;;;;;12.20;9.03;;;;;;;20.18;99.43;100508.16;4217035;28;21723;-70
2023/08/18 04:55:19;;;;;;;11.20;7.87;;;;;;;20.29;97.99;100506.69;4202071;28;22725;-70
2023/08/18 04:57:45;;;;;;;15.03;8.90;;;;;;;20.40;96.89;100506.06;4236141;28;21361;-70
2023/08/18 05:00:12;;;;;;;13.20;9.40;;;;;;;20.38;97.51;100504.59;4229953;28;22456;-71
2023/08/18 05:02:39;;;;;;;18.20;10.43;;;;;;;20.30;98.49;100508.41;4228823;28;20304;-70
2023/08/18 05:05:06;;;;;;;18.10;11.70;;;;;;;20.33;98.08;100513.47;4231681;28;23098;-70
2023/08/18 05:07:32;;;;;;;24.73;11.00;;;;;;;20.40;97.55;100521.72;4228139;28;20869;-70
2023/08/18 05:10:00;;;;;;;17.10;10.20;;;;;;;20.45;96.75;100521.94;4228387;28;20237;-71
2023/08/18 05:12:27;;;;;;;16.37;9.80;;;;;;;20.50;96.95;100522.16;4241334;28;20236;-70
2023/08/18 05:14:54;;;;;;;18.37;10.23;;;;;;;20.54;96.90;100520.66;4233676;28;20262;-70
2023/08/18 05:17:21;;;;;;;18.00;9.43;;;;;;;20.61;96.99;100519.81;4224778;28;21089;-70
2023/08/18 05:19:47;;;;;;;21.97;10.37;;;;;;;20.78;96.55;100523.00;4240218;28;20234;-68
2023/08/18 05:22:14;;;;;;;19.10;8.80;;;;;;;21.02;94.27;100522.34;4219838;28;20250;-69
2023/08/18 05:24:41;;;;;;;12.30;7.83;;;;;;;21.07;93.19;100524.47;4244912;28;20444;-69
2023/08/18 05:27:07;;;;;;;11.97;8.33;;;;;;;21.10;94.20;100524.03;4235050;28;20280;-70
2023/08/18 05:29:35;;;;;;;12.70;8.03;;;;;;;21.23;92.63;100520.38;4239951;28;22019;-69
2023/08/18 05:32:06;;;;;;;9.83;7.20;;;;;;;21.51;90.24;100519.25;4239640;28;20325;-69
2023/08/18 05:34:33;;;;;;;12.77;7.60;;;;;;;21.65;89.48;100525.56;4229916;28;20235;-68
2023/08/18 05:37:00;;;;;;;11.40;6.73;;;;;;;21.67;87.81;100524.31;4228749;28;20420;-69
2023/08/18 05:39:27;;;;;;;9.33;6.77;;;;;;;21.79;86.91;100520.84;4242783;28;20235;-71
2023/08/18 05:41:54;;;;;;;9.20;6.30;;;;;;;21.95;85.12;100522.22;4236634;28;22128;-68
2023/08/18 05:44:20;;;;;;;11.87;6.20;;;;;;;22.02;83.73;100512.00;4239222;28;20236;-72
2023/08/18 05:46:47;;;;;;;11.80;5.63;;;;;;;22.22;83.19;100522.09;4240279;28;20243;-70
2023/08/18 05:49:13;;;;;;;10.40;6.40;;;;;;;22.40;82.40;100515.81;4233153;28;20380;-69
2023/08/18 05:51:42;;;;;;;9.77;5.83;;;;;;;22.39;80.63;100520.50;4242492;28;20250;-69
2023/08/18 05:54:09;;;;;;;9.50;6.33;;;;;;;22.43;81.75;100512.63;4236273;28;20286;-68
2023/08/18 05:56:38;;;;;;;11.17;5.73;;;;;;;22.50;81.21;100529.13;4225748;28;20260;-66
2023/08/18 05:59:04;;;;;;;10.50;5.70;;;;;;;22.72;79.43;100526.81;4245248;28;21737;-66
2023/08/18 06:01:31;;;;;;;8.93;5.33;;;;;;;22.89;78.85;100518.78;4250368;28;22714;-69
2023/08/18 06:03:58;;;;;;;6.97;4.80;;;;;;;22.89;78.62;100527.91;4214428;28;20622;-68
2023/08/18 06:06:24;;;;;;;7.60;5.47;;;;;;;22.95;79.62;100523.41;4248857;28;25999;-65
2023/08/18 06:08:51;;;;;;;11.07;5.17;;;;;;;23.22;77.08;100517.66;4244925;28;20238;-66
2023/08/18 06:11:18;;;;;;;10.43;5.67;;;;;;;23.41;75.44;100511.03;4211120;28;20283;-68
2023/08/18 06:13:44;;;;;;;8.00;4.40;;;;;;;23.52;73.94;100508.59;4229876;28;20242;-65
2023/08/18 06:16:11;;;;;;;8.90;4.90;;;;;;;23.84;72.87;100509.22;4229393;28;21661;-66
2023/08/18 06:18:37;;;;;;;7.03;4.40;;;;;;;24.77;69.49;100513.56;4250738;28;20244;-66
2023/08/18 06:21:04;;;;;;;7.37;4.50;;;;;;;25.30;65.42;100511.72;4233677;28;22325;-68
2023/08/18 06:23:36;;;;;;;9.90;4.30;;;;;;;25.79;64.42;100511.38;4230316;28;20234;-69
2023/08/18 06:26:02;;;;;;;9.80;3.90;;;;;;;26.76;61.06;100505.06;4220778;28;20242;-70
2023/08/18 06:28:29;;;;;;;9.13;3.97;;;;;;;27.23;60.01;100506.59;4231238;28;21586;-70
2023/08/18 06:31:06;;;;;;;6.33;4.03;;;;;;;27.01;60.38;100510.16;4220272;28;21047;-69
2023/08/18 06:33:35;;;;;;;8.43;4.30;;;;;;;26.40;63.25;100511.69;4219449;28;20234;-69
2023/08/18 06:36:02;;;;;;;8.50;4.37;;;;;;;26.72;62.15;100508.31;4228650;28;20231;-69
2023/08/18 06:38:29;;;;;;;5.43;3.70;;;;;;;27.81;57.46;100507.88;4229892;28;22781;-69
2023/08/18 06:40:56;;;;;;;6.97;4.18;;;;;;;28.40;55.85;100509.03;4236007;28;20238;-69
2023/08/18 06:43:23;;;;;;;5.77;3.67;;;;;;;29.36;53.21;100506.38;4241454;28;22812;-69
2023/08/18 06:45:49;;;;;;;8.20;4.30;;;;;;;29.55;51.18;100503.94;4256078;28;20226;-73
2023/08/18 06:48:16;;;;;;;7.68;4.15;;;;;;;29.73;50.43;100507.34;4242845;28;20999;-70
2023/08/18 06:50:42;;;;;;;5.18;3.53;;;;;;;29.30;50.51;100510.22;4237582;28;21139;-71
2023/08/18 06:53:09;;;;;;;5.47;3.65;;;;;;;29.29;50.70;100504.94;4246872;28;20292;-70
2023/08/18 06:55:36;;;;;;;12.00;4.00;;;;;;;29.82;49.40;100513.22;4252972;28;20236;-70
2023/08/18 06:58:15;;;;;;;7.32;4.20;;;;;;;29.97;49.17;100506.91;4253323;28;21223;-70
2023/08/18 07:00:42;;;;;;;5.40;3.75;;;;;;;30.62;47.84;100514.78;4219160;28;20235;-70
2023/08/18 07:03:09;;;;;;;7.45;4.22;;;;;;;30.66;47.61;100515.91;4230958;28;20298;-70
2023/08/18 07:05:36;;;;;;;9.80;4.20;;;;;;;30.83;47.32;100510.00;4249906;28;20243;-69
2023/08/18 07:08:03;;;;;;;9.60;4.28;;;;;;;29.99;49.76;100511.09;4298293;28;20257;-70
2023/08/18 07:10:30;;;;;;;10.48;4.43;;;;;;;30.46;48.90;100513.94;4264170;28;20283;-71
2023/08/18 07:12:56;;;;;;;8.63;3.97;;;;;;;31.66;45.32;100505.03;4262451;28;20501;-72
2023/08/18 07:15:23;;;;;;;9.80;3.80;;;;;;;30.94;46.64;100505.25;4306255;28;20399;-70
2023/08/18 07:17:50;;;;;;;8.68;4.22;;;;;;;31.20;46.01;100511.63;4244673;28;20307;-73
2023/08/18 07:20:18;;;;;;;11.48;4.40;;;;;;;32.11;44.24;100521.84;4242776;28;20257;-71
2023/08/18 07:22:44;;;;;;;8.77;4.40;;;;;;;31.89;45.04;100516.66;4255239;28;20317;-75
2023/08/18 07:25:11;;;;;;;8.60;4.35;;;;;;;31.59;46.07;100510.91;4250932;28;20412;-72
2023/08/18 07:27:38;;;;;;;8.05;4.30;;;;;;;32.03;45.06;100520.47;4253208;28;21686;-73
2023/08/18 07:30:06;;;;;;;13.75;4.30;;;;;;;32.22;44.50;100522.63;4249255;28;21769;-78
2023/08/18 07:32:32;;;;;;;7.28;4.55;;;;;;;31.37;45.94;100519.69;4236642;28;20398;-69
2023/08/18 07:35:00;;;;;;;8.98;4.30;;;;;;;31.61;45.36;100513.44;4245644;28;20292;-72
2023/08/18 07:37:27;;;;;;;6.93;3.92;;;;;;;30.88;46.61;100518.38;4261320;28;20231;-71
2023/08/18 07:39:56;;;;;;;8.23;3.90;;;;;;;30.58;47.58;100520.09;4266755;28;20245;-73
2023/08/18 07:42:23;;;;;;;6.30;4.45;;;;;;;29.78;49.38;100529.69;4244637;28;20253;-73
2023/08/18 07:44:50;;;;;;;10.63;4.72;;;;;;;29.75;50.07;100526.59;4253927;28;22141;-71
2023/08/18 07:47:17;;;;;;;8.38;4.43;;;;;;;30.88;46.66;100529.56;4234352;28;20300;-71
2023/08/18 07:49:45;;;;;;;7.55;4.30;;;;;;;31.70;45.07;100522.94;4255838;28;23142;-71
2023/08/18 07:52:11;;;;;;;6.32;4.43;;;;;;;31.57;44.73;100529.94;4247236;28;20236;-74
2023/08/18 07:54:38;;;;;;;5.78;3.90;;;;;;;31.48;43.70;100517.66;4276569;28;20592;-75
2023/08/18 07:57:05;;;;;;;5.57;3.92;;;;;;;31.41;43.40;100525.53;4262636;28;25857;-73
2023/08/18 07:59:32;;;;;;;6.97;4.33;;;;;;;31.18;44.76;100527.84;4243655;28;20451;-70
2023/08/18 08:01:59;;;;;;;9.52;4.70;;;;;;;30.60;45.90;100534.63;4261984;28;25304;-68
2023/08/18 08:04:25;;;;;;;11.65;5.00;;;;;;;30.66;46.14;100533.50;4283424;28;22212;-72
2023/08/18 08:06:55;;;;;;;8.35;4.25;;;;;;;30.23;47.41;100537.63;4258456;28;21741;-73
2023/08/18 08:09:24;;;;;;;9.63;5.20;;;;;;;29.81;48.51;100539.44;4246586;28;22837;-73
2023/08/18 08:11:52;;;;;;;8.30;4.75;;;;;;;29.42;49.42;100532.34;4210578;28;20599;-70
2023/08/18 08:14:19;;;;;;;9.50;5.28;;;;;;;29.51;49.63;100550.25;4260275;28;21893;-73
2023/08/18 08:16:46;;;;;;;13.98;5.95;;;;;;;29.25;50.69;100541.69;4280105;28;20239;-75
2023/08/18 08:19:13;;;;;;;10.18;5.40;;;;;;;29.39;50.03;100532.88;4266098;28;20270;-73
2023/08/18 08:21:44;;;;;;;12.32;5.32;;;;;;;29.68;50.15;100541.66;4276461;28;20307;-76
2023/08/18 08:24:10;;;;;;;12.02;5.28;;;;;;;29.83;50.04;100545.59;4248086;28;20239;-74
2023/08/18 08:26:37;;;;;;;10.90;5.10;;;;;;;30.02;48.54;100548.75;4260584;28;21718;-74
2023/08/18 08:29:04;;;;;;;6.60;5.25;;;;;;;30.27;48.98;100547.97;4273301;28;20246;-75
2023/08/18 08:31:31;;;;;;;11.10;5.40;;;;;;;30.49;48.21;100544.06;4268163;28;20244;-69
2023/08/18 08:33:58;;;;;;;9.32;5.85;;;;;;;31.02;47.01;100545.75;4263836;28;23049;-70
2023/08/18 08:36:25;;;;;;;9.43;5.60;;;;;;;30.76;47.70;100548.59;4267256;28;22306;-71
2023/08/18 08:38:57;;;;;;;10.30;5.60;;;;;;;30.77;47.57;100539.91;4311006;28;20368;-70
2023/08/18 08:41:24;;;;;;;9.30;4.93;;;;;;;31.25;46.93;100539.56;4277579;28;22365;-76
2023/08/18 08:43:51;;;;;;;8.75;5.60;;;;;;;30.97;46.04;100532.59;4344297;28;20234;-74
2023/08/18 08:46:19;;;;;;;6.97;5.63;;;;;;;30.32;47.41;100549.94;4276730;28;21105;-75
2023/08/18 08:48:46;;;;;;;9.43;5.50;;;;;;;30.26;47.64;100548.25;4304140;28;20437;-77
2023/08/18 08:51:15;;;;;;;7.90;5.47;;;;;;;30.23;49.72;100548.78;4266697;28;21365;-76
2023/08/18 08:53:50;;;;;;;13.27;5.25;;;;;;;30.48;47.56;100540.47;4263047;28;20245;-75
2023/08/18 08:56:17;;;;;;;12.13;5.20;;;;;;;30.98;46.78;100537.94;4275424;28;22235;-72
2023/08/18 08:58:45;;;;;;;10.13;5.63;;;;;;;30.79;47.32;100539.63;4244630;28;20242;-77
2023/08/18 09:01:12;;;;;;;9.07;5.90;;;;;;;30.53;46.49;100545.25;4212800;28;20282;-74
2023/08/18 09:03:40;;;;;;;7.10;5.15;;;;;;;30.19;47.26;100541.00;4247215;28;25668;-76
2023/08/18 09:06:11;;;;;;;9.55;5.18;;;;;;;29.90;48.12;100545.34;4238399;28;20450;-74
2023/08/18 09:08:38;;;;;;;7.27;5.53;;;;;;;29.92;48.39;100541.22;4247767;28;20242;-77
2023/08/18 09:11:04;;;;;;;8.65;5.55;;;;;;;30.07;48.43;100542.34;4225743;28;21042;-77
2023/08/18 09:13:33;;;;;;;8.10;5.40;;;;;;;30.19;47.60;100532.63;4222399;28;20243;-77
2023/08/18 09:16:03;;;;;;;10.20;5.90;;;;;;;30.41;48.66;100541.84;4250955;28;20294;-76
2023/08/18 09:18:32;;;;;;;11.02;5.47;;;;;;;30.21;47.26;100537.91;4247091;28;21055;-76
2023/08/18 09:21:00;;;;;;;12.35;5.05;;;;;;;30.14;47.21;100531.75;4258024;28;21065;-77
2023/08/18 09:23:28;;;;;;;11.60;5.43;;;;;;;30.51;47.05;100523.16;4244251;28;22213;-76
2023/08/18 09:25:58;;;;;;;10.05;5.07;;;;;;;30.46;47.72;100542.69;4252985;28;20238;-79
2023/08/18 09:28:25;;;;;;;10.30;5.50;;;;;;;30.33;47.22;100532.88;4231385;28;20234;-76
2023/08/18 09:30:52;;;;;;;6.97;4.80;;;;;;;30.57;46.94;100532.38;4221649;28;20295;-77
2023/08/18 09:33:25;;;;;;;12.85;5.32;;;;;;;30.73;46.29;100530.44;4222282;28;21949;-77
2023/08/18 09:36:01;;;;;;;11.32;5.15;;;;;;;30.56;46.51;100521.50;4243414;28;20309;-79
2023/08/18 09:38:29;;;;;;;7.38;4.90;;;;;;;30.70;46.40;100524.56;4239181;28;21419;-74
2023/08/18 09:41:03;;;;;;;9.90;5.23;;;;;;;30.46;46.65;100517.53;4240684;28;21178;-75
2023/08/18 09:43:29;;;;;;;10.95;5.57;;;;;;;30.42;46.13;100513.66;4249349;28;20991;-77
2023/08/18 09:45:57;;;;;;;11.18;5.18;;;;;;;30.81;46.02;100512.25;4245772;28;22314;-75
2023/08/18 09:48:26;;;;;;;13.10;5.22;;;;;;;30.71;46.08;100523.41;4228420;28;20290;-77
2023/08/18 09:50:56;;;;;;;11.23;5.53;;;;;;;30.97;44.95;100507.44;4226990;28;21373;-76
2023/08/18 09:53:30;;;;;;;6.68;5.25;;;;;;;30.52;46.91;100510.03;4236974;28;25444;-75
2023/08/18 09:56:20;;;;;;;8.70;4.88;;;;;;;30.58;46.01;100502.50;4252904;28;21950;-76
2023/08/18 09:58:58;;;;;;;10.05;5.35;;;;;;;30.32;46.57;100497.72;4239681;28;20239;-76
2023/08/18 10:01:28;;;;;;;9.48;5.07;;;;;;;30.79;45.84;100495.75;4236883;28;20289;-75
2023/08/18 10:03:58;;;;;;;13.82;4.88;;;;;;;30.63;45.11;100496.91;4266128;28;20318;-75
2023/08/18 10:06:25;;;;;;;11.70;5.45;;;;;;;30.39;44.98;100507.78;4302216;28;21772;-75
2023/08/18 10:08:53;;;;;;;8.27;5.85;;;;;;;30.76;44.77;100493.53;4232365;28;20230;-73
2023/08/18 10:11:19;;;;;;;15.90;5.95;;;;;;;30.86;44.80;100498.25;4248487;28;20286;-73
2023/08/18 10:13:47;;;;;;;11.77;5.80;;;;;;;30.80;44.97;100491.84;4243931;28;20264;-73
2023/08/18 10:16:14;;;;;;;17.00;6.32;;;;;;;30.74;44.79;100497.72;4246866;28;20285;-72
2023/08/18 10:18:40;;;;;;;10.73;5.75;;;;;;;30.80;44.25;100497.44;4231951;28;20303;-74
2023/08/18 10:21:10;;;;;;;15.57;6.20;;;;;;;30.85;44.98;100496.59;4246104;28;20581;-73
2023/08/18 10:23:39;;;;;;;12.93;5.97;;;;;;;31.20;43.78;100494.00;4241419;28;20227;-69
2023/08/18 10:26:06;;;;;;;13.25;6.28;;;;;;;30.83;44.24;100485.69;4222452;28;21143;-68
2023/08/18 10:28:34;;;;;;;18.42;6.60;;;;;;;30.77;45.15;100486.81;4244223;28;20848;-70
2023/08/18 10:31:07;;;;;;;15.20;5.82;;;;;;;30.66;44.66;100487.97;4249547;28;21608;-71
2023/08/18 10:33:47;;;;;;;12.70;6.07;;;;;;;30.81;44.36;100489.88;4252018;28;22055;-70
2023/08/18 10:36:19;;;;;;;10.57;5.63;;;;;;;30.59;44.36;100493.84;4242688;28;22323;-74
2023/08/18 10:38:46;;;;;;;11.05;6.00;;;;;;;30.73;44.01;100496.03;4249162;28;21474;-73
2023/08/18 10:41:13;;;;;;;12.30;5.77;;;;;;;31.07;43.58;100492.63;4247016;28;20250;-73
2023/08/18 10:43:56;;;;;;;13.45;5.50;;;;;;;31.28;42.67;100487.81;4241971;28;20249;-73
2023/08/18 10:46:35;;;;;;;15.13;5.75;;;;;;;31.71;41.47;100485.44;4254587;28;20664;-72
2023/08/18 10:49:02;;;;;;;16.58;6.05;;;;;;;31.62;42.39;100495.50;4273675;28;20607;-75
2023/08/18 10:51:29;;;;;;;8.45;5.80;;;;;;;31.65;42.84;100494.09;4275379;28;20290;-75
2023/08/18 10:53:56;;;;;;;13.02;5.45;;;;;;;31.69;41.62;100482.06;4258664;28;20256;-74
2023/08/18 10:56:23;;;;;;;14.10;5.50;;;;;;;31.59;41.53;100482.09;4262883;28;21667;-72
2023/08/18 10:58:50;;;;;;;11.63;5.67;;;;;;;31.43;41.84;100490.56;4242654;28;21476;-75
2023/08/18 11:01:19;;;;;;;9.80;5.18;;;;;;;31.15;43.16;100492.09;4236089;28;22826;-72
2023/08/18 11:03:46;;;;;;;12.18;4.95;;;;;;;31.06;42.42;100490.94;4242821;28;20300;-70
2023/08/18 11:06:12;;;;;;;9.05;4.63;;;;;;;31.32;42.78;100472.16;4229240;28;23798;-78
2023/08/18 11:08:39;;;;;;;9.70;5.15;;;;;;;31.43;42.75;100484.13;4243375;28;20689;-73
2023/08/18 11:11:06;;;;;;;9.05;4.60;;;;;;;31.61;40.56;100480.66;4260349;28;20275;-74
2023/08/18 11:13:32;;;;;;;11.88;4.70;;;;;;;31.96;39.53;100480.78;4246762;28;20606;-76
2023/08/18 11:16:01;;;;;;;10.55;4.78;;;;;;;31.68;40.16;100476.78;4233530;28;20293;-77
2023/08/18 11:18:28;;;;;;;7.18;4.60;;;;;;;32.04;39.65;100482.13;4241646;28;22119;-73